createdAt,value
2019-05-19T00:00:53.498Z,1005.31
2019-05-19T00:01:53.506Z,1005.30
2019-05-19T00:02:53.511Z,1005.29
2019-05-19T00:03:53.542Z,1005.28
2019-05-19T00:04:53.528Z,1005.32
2019-05-19T00:05:53.499Z,1005.29
2019-05-19T00:06:53.561Z,1005.30
2019-05-19T00:07:53.490Z,1005.33
2019-05-19T00:08:53.560Z,1005.28
2019-05-19T00:09:53.548Z,1005.26
2019-05-19T00:10:53.499Z,1005.21
2019-05-19T00:11:53.511Z,1005.21
2019-05-19T00:12:53.545Z,1005.23
2019-05-19T00:13:53.564Z,1005.21
2019-05-19T00:14:53.529Z,1005.16
2019-05-19T00:15:53.502Z,1005.11
2019-05-19T00:16:53.543Z,1005.13
2019-05-19T00:17:53.510Z,1005.17
2019-05-19T00:18:53.560Z,1005.09
2019-05-19T00:19:53.553Z,1005.09
2019-05-19T00:20:53.543Z,1005.05
2019-05-19T00:21:53.568Z,1005.04
2019-05-19T00:22:53.526Z,1005.00
2019-05-19T00:23:53.569Z,1004.99
2019-05-19T00:24:53.523Z,1005.00
2019-05-19T00:25:53.542Z,1004.94
2019-05-19T00:26:53.521Z,1004.91
2019-05-19T00:27:53.529Z,1004.89
2019-05-19T00:28:53.548Z,1004.88
2019-05-19T00:29:53.535Z,1004.86
2019-05-19T00:30:53.537Z,1004.90
2019-05-19T00:31:53.508Z,1004.85
2019-05-19T00:32:53.532Z,1004.84
2019-05-19T00:33:53.523Z,1004.90
2019-05-19T00:34:53.545Z,1004.80
2019-05-19T00:35:53.526Z,1004.76
2019-05-19T00:36:53.557Z,1004.74
2019-05-19T00:37:53.568Z,1004.78
2019-05-19T00:38:53.537Z,1004.75
2019-05-19T00:39:53.575Z,1004.72
2019-05-19T00:40:53.558Z,1004.74
2019-05-19T00:41:53.525Z,1004.68
2019-05-19T00:42:53.552Z,1004.69
2019-05-19T00:43:53.583Z,1004.67
2019-05-19T00:44:53.567Z,1004.70
2019-05-19T00:45:53.585Z,1004.64
2019-05-19T00:46:53.579Z,1004.73
2019-05-19T00:47:53.564Z,1004.69
2019-05-19T00:48:53.594Z,1004.67
2019-05-19T00:49:53.573Z,1004.66
2019-05-19T00:50:53.587Z,1004.64
2019-05-19T00:51:53.539Z,1004.64
2019-05-19T00:52:53.566Z,1004.62
2019-05-19T00:53:53.547Z,1004.65
2019-05-19T00:54:53.599Z,1004.64
2019-05-19T00:55:53.575Z,1004.67
2019-05-19T00:56:53.566Z,1004.60
2019-05-19T00:57:53.541Z,1004.59
2019-05-19T00:58:53.568Z,1004.52
2019-05-19T00:59:53.584Z,1004.62
2019-05-19T01:00:53.565Z,1004.60
2019-05-19T01:01:53.549Z,1004.59
2019-05-19T01:02:53.554Z,1004.55
2019-05-19T01:03:53.593Z,1004.56
2019-05-19T01:04:53.571Z,1004.51
2019-05-19T01:05:53.583Z,1004.52
2019-05-19T01:06:53.570Z,1004.56
2019-05-19T01:07:53.572Z,1004.53
2019-05-19T01:08:53.604Z,1004.59
2019-05-19T01:09:53.557Z,1004.51
2019-05-19T01:10:53.608Z,1004.47
2019-05-19T01:11:53.587Z,1004.51
2019-05-19T01:12:53.588Z,1004.48
2019-05-19T01:13:53.563Z,1004.51
2019-05-19T01:14:53.575Z,1004.53
2019-05-19T01:15:53.604Z,1004.51
2019-05-19T01:16:53.573Z,1004.49
2019-05-19T01:17:53.595Z,1004.53
2019-05-19T01:18:53.594Z,1004.51
2019-05-19T01:19:55.923Z,1004.54
2019-05-19T01:20:53.623Z,1004.52
2019-05-19T01:21:53.610Z,1004.54
2019-05-19T01:22:53.582Z,1004.54
2019-05-19T01:23:53.576Z,1004.51
2019-05-19T01:24:53.572Z,1004.55
2019-05-19T01:25:53.613Z,1004.52
2019-05-19T01:26:53.577Z,1004.49
2019-05-19T01:27:53.611Z,1004.49
2019-05-19T01:28:53.593Z,1004.52
2019-05-19T01:29:53.601Z,1004.53
2019-05-19T01:30:53.594Z,1004.49
2019-05-19T01:31:53.575Z,1004.47
2019-05-19T01:32:53.611Z,1004.49
2019-05-19T01:33:53.610Z,1004.51
2019-05-19T01:34:53.592Z,1004.56
2019-05-19T01:35:53.621Z,1004.50
2019-05-19T01:36:53.636Z,1004.56
2019-05-19T01:37:53.649Z,1004.59
2019-05-19T01:38:53.658Z,1004.54
2019-05-19T01:39:53.686Z,1004.63
2019-05-19T01:40:53.655Z,1004.56
2019-05-19T01:41:53.677Z,1004.57
2019-05-19T01:42:53.667Z,1004.61
2019-05-19T01:43:53.666Z,1004.52
2019-05-19T01:44:53.689Z,1004.55
2019-05-19T01:45:53.695Z,1004.51
2019-05-19T01:46:53.670Z,1004.54
2019-05-19T01:47:53.688Z,1004.52
2019-05-19T01:48:53.688Z,1004.55
2019-05-19T01:49:53.682Z,1004.49
2019-05-19T01:50:53.701Z,1004.48
2019-05-19T01:51:53.668Z,1004.46
2019-05-19T01:52:53.683Z,1004.53
2019-05-19T01:53:53.678Z,1004.49
2019-05-19T01:54:53.696Z,1004.57
2019-05-19T01:55:53.681Z,1004.51
2019-05-19T01:56:53.677Z,1004.53
2019-05-19T01:57:53.662Z,1004.56
2019-05-19T01:58:53.687Z,1004.55
2019-05-19T01:59:53.712Z,1004.52
2019-05-19T02:00:53.672Z,1004.57
2019-05-19T02:01:53.705Z,1004.63
2019-05-19T02:02:53.694Z,1004.56
2019-05-19T02:03:53.684Z,1004.54
2019-05-19T02:04:53.710Z,1004.54
2019-05-19T02:05:53.703Z,1004.54
2019-05-19T02:06:53.716Z,1004.49
2019-05-19T02:07:53.697Z,1004.52
2019-05-19T02:08:53.690Z,1004.50
2019-05-19T02:09:53.735Z,1004.57
2019-05-19T02:10:53.704Z,1004.52
2019-05-19T02:11:53.681Z,1004.55
2019-05-19T02:12:53.700Z,1004.56
2019-05-19T02:13:53.700Z,1004.50
2019-05-19T02:14:53.744Z,1004.52
2019-05-19T02:15:53.708Z,1004.52
2019-05-19T02:16:53.736Z,1004.49
2019-05-19T02:17:53.721Z,1004.49
2019-05-19T02:18:53.725Z,1004.52
2019-05-19T02:19:53.712Z,1004.57
2019-05-19T02:20:53.722Z,1004.61
2019-05-19T02:21:53.710Z,1004.56
2019-05-19T02:22:53.723Z,1004.54
2019-05-19T02:23:53.756Z,1004.57
2019-05-19T02:24:53.751Z,1004.52
2019-05-19T02:25:53.707Z,1004.52
2019-05-19T02:26:53.731Z,1004.56
2019-05-19T02:27:53.732Z,1004.54
2019-05-19T02:28:53.742Z,1004.49
2019-05-19T02:29:53.723Z,1004.50
2019-05-19T02:30:53.757Z,1004.49
2019-05-19T02:31:53.708Z,1004.49
2019-05-19T02:32:53.718Z,1004.49
2019-05-19T02:33:53.754Z,1004.52
2019-05-19T02:34:53.730Z,1004.53
2019-05-19T02:35:53.750Z,1004.50
2019-05-19T02:36:53.740Z,1004.52
2019-05-19T02:37:53.709Z,1004.48
2019-05-19T02:38:53.717Z,1004.41
2019-05-19T02:39:53.724Z,1004.47
2019-05-19T02:40:53.743Z,1004.49
2019-05-19T02:41:53.761Z,1004.45
2019-05-19T02:42:53.742Z,1004.45
2019-05-19T02:43:53.729Z,1004.45
2019-05-19T02:44:53.752Z,1004.43
2019-05-19T02:45:53.736Z,1004.41
2019-05-19T02:46:53.726Z,1004.38
2019-05-19T02:47:53.747Z,1004.34
2019-05-19T02:48:53.750Z,1004.44
2019-05-19T02:49:53.740Z,1004.35
2019-05-19T02:50:53.758Z,1004.39
2019-05-19T02:51:53.743Z,1004.41
2019-05-19T02:52:53.739Z,1004.36
2019-05-19T02:53:53.788Z,1004.38
2019-05-19T02:54:53.734Z,1004.38
2019-05-19T02:55:53.793Z,1004.38
2019-05-19T02:56:53.756Z,1004.41
2019-05-19T02:57:53.760Z,1004.35
2019-05-19T02:58:53.748Z,1004.35
2019-05-19T02:59:53.751Z,1004.37
2019-05-19T03:00:53.790Z,1004.34
2019-05-19T03:01:53.751Z,1004.36
2019-05-19T03:02:53.755Z,1004.37
2019-05-19T03:03:53.780Z,1004.31
2019-05-19T03:04:53.759Z,1004.35
2019-05-19T03:05:53.757Z,1004.37
2019-05-19T03:06:54.063Z,1004.38
2019-05-19T03:07:53.750Z,1004.36
2019-05-19T03:08:53.773Z,1004.34
2019-05-19T03:09:53.761Z,1004.36
2019-05-19T03:10:53.790Z,1004.38
2019-05-19T03:11:53.772Z,1004.35
2019-05-19T03:12:53.769Z,1004.33
2019-05-19T03:13:53.789Z,1004.42
2019-05-19T03:14:53.770Z,1004.36
2019-05-19T03:15:53.742Z,1004.33
2019-05-19T03:16:53.751Z,1004.35
2019-05-19T03:17:53.768Z,1004.39
2019-05-19T03:18:53.827Z,1004.33
2019-05-19T03:19:53.803Z,1004.35
2019-05-19T03:21:09.776Z,1004.37
2019-05-19T03:21:53.788Z,1004.38
2019-05-19T03:22:53.803Z,1004.35
2019-05-19T03:23:53.807Z,1004.31
2019-05-19T03:24:53.814Z,1004.39
2019-05-19T03:25:53.792Z,1004.41
2019-05-19T03:26:53.810Z,1004.37
2019-05-19T03:27:53.809Z,1004.38
2019-05-19T03:28:53.794Z,1004.36
2019-05-19T03:29:53.810Z,1004.37
2019-05-19T03:30:53.882Z,1004.41
2019-05-19T03:31:53.810Z,1004.37
2019-05-19T03:32:53.791Z,1004.34
2019-05-19T03:33:53.841Z,1004.35
2019-05-19T03:34:53.817Z,1004.30
2019-05-19T03:35:53.859Z,1004.33
2019-05-19T03:36:53.791Z,1004.35
2019-05-19T03:37:53.841Z,1004.29
2019-05-19T03:38:53.820Z,1004.29
2019-05-19T03:39:53.808Z,1004.32
2019-05-19T03:40:53.829Z,1004.28
2019-05-19T03:41:53.820Z,1004.29
2019-05-19T03:42:53.786Z,1004.21
2019-05-19T03:43:53.817Z,1004.31
2019-05-19T03:44:53.791Z,1004.26
2019-05-19T03:45:53.834Z,1004.24
2019-05-19T03:46:53.822Z,1004.25
2019-05-19T03:47:53.965Z,1004.25
2019-05-19T03:48:53.816Z,1004.29
2019-05-19T03:49:53.907Z,1004.31
2019-05-19T03:50:53.858Z,1004.24
2019-05-19T03:51:53.844Z,1004.25
2019-05-19T03:52:53.859Z,1004.29
2019-05-19T03:53:53.834Z,1004.30
2019-05-19T03:54:53.825Z,1004.29
2019-05-19T03:55:53.846Z,1004.28
2019-05-19T03:56:53.877Z,1004.30
2019-05-19T03:57:53.855Z,1004.34
2019-05-19T03:58:53.823Z,1004.32
2019-05-19T03:59:53.876Z,1004.28
2019-05-19T04:00:53.897Z,1004.33
2019-05-19T04:01:53.849Z,1004.34
2019-05-19T04:02:53.827Z,1004.30
2019-05-19T04:03:53.835Z,1004.35
2019-05-19T04:04:53.830Z,1004.29
2019-05-19T04:05:53.868Z,1004.37
2019-05-19T04:06:53.872Z,1004.34
2019-05-19T04:07:53.883Z,1004.36
2019-05-19T04:08:53.822Z,1004.35
2019-05-19T04:09:53.906Z,1004.33
2019-05-19T04:10:53.967Z,1004.35
2019-05-19T04:11:53.867Z,1004.29
2019-05-19T04:12:53.840Z,1004.33
2019-05-19T04:13:53.851Z,1004.33
2019-05-19T04:14:53.875Z,1004.35
2019-05-19T04:15:53.956Z,1004.24
2019-05-19T04:16:53.847Z,1004.31
2019-05-19T04:17:53.855Z,1004.27
2019-05-19T04:18:53.875Z,1004.30
2019-05-19T04:19:53.871Z,1004.28
2019-05-19T04:20:53.865Z,1004.34
2019-05-19T04:21:53.841Z,1004.32
2019-05-19T04:22:53.847Z,1004.28
2019-05-19T04:23:53.856Z,1004.31
2019-05-19T04:24:53.825Z,1004.31
2019-05-19T04:25:53.844Z,1004.30
2019-05-19T04:26:53.872Z,1004.33
2019-05-19T04:27:53.834Z,1004.33
2019-05-19T04:28:53.856Z,1004.35
2019-05-19T04:29:53.834Z,1004.38
2019-05-19T04:30:53.854Z,1004.33
2019-05-19T04:31:53.892Z,1004.35
2019-05-19T04:32:53.832Z,1004.32
2019-05-19T04:33:53.864Z,1004.31
2019-05-19T04:34:53.862Z,1004.34
2019-05-19T04:35:57.378Z,1004.34
2019-05-19T04:36:53.888Z,1004.30
2019-05-19T04:37:53.876Z,1004.31
2019-05-19T04:38:53.851Z,1004.34
2019-05-19T04:39:53.903Z,1004.36
2019-05-19T04:40:53.850Z,1004.35
2019-05-19T04:41:53.865Z,1004.34
2019-05-19T04:42:53.879Z,1004.38
2019-05-19T04:43:53.854Z,1004.30
2019-05-19T04:44:53.862Z,1004.34
2019-05-19T04:45:53.865Z,1004.35
2019-05-19T04:46:53.870Z,1004.32
2019-05-19T04:47:53.873Z,1004.31
2019-05-19T04:48:53.854Z,1004.35
2019-05-19T04:49:53.838Z,1004.38
2019-05-19T04:50:53.851Z,1004.31
2019-05-19T04:52:05.946Z,1004.36
2019-05-19T04:52:53.900Z,1004.33
2019-05-19T04:53:53.886Z,1004.32
2019-05-19T04:54:53.851Z,1004.45
2019-05-19T04:55:53.888Z,1004.41
2019-05-19T04:56:53.896Z,1004.45
2019-05-19T04:57:53.892Z,1004.44
2019-05-19T04:58:53.904Z,1004.48
2019-05-19T04:59:53.854Z,1004.45
2019-05-19T05:00:53.863Z,1004.47
2019-05-19T05:01:53.892Z,1004.51
2019-05-19T05:02:53.881Z,1004.47
2019-05-19T05:03:53.915Z,1004.51
2019-05-19T05:04:53.928Z,1004.53
2019-05-19T05:05:53.858Z,1004.49
2019-05-19T05:06:53.875Z,1004.56
2019-05-19T05:07:53.894Z,1004.47
2019-05-19T05:08:53.881Z,1004.49
2019-05-19T05:09:53.951Z,1004.45
2019-05-19T05:10:53.856Z,1004.56
2019-05-19T05:11:53.870Z,1004.50
2019-05-19T05:12:53.901Z,1004.57
2019-05-19T05:13:53.857Z,1004.52
2019-05-19T05:14:53.896Z,1004.50
2019-05-19T05:15:53.906Z,1004.54
2019-05-19T05:16:53.905Z,1004.49
2019-05-19T05:17:53.965Z,1004.59
2019-05-19T05:18:53.913Z,1004.56
2019-05-19T05:19:53.896Z,1004.59
2019-05-19T05:20:53.892Z,1004.50
2019-05-19T05:21:53.894Z,1004.58
2019-05-19T05:22:53.920Z,1004.55
2019-05-19T05:23:53.878Z,1004.57
2019-05-19T05:24:53.882Z,1004.49
2019-05-19T05:25:53.884Z,1004.50
2019-05-19T05:26:53.915Z,1004.48
2019-05-19T05:27:53.908Z,1004.55
2019-05-19T05:28:53.969Z,1004.50
2019-05-19T05:29:53.925Z,1004.56
2019-05-19T05:30:53.918Z,1004.45
2019-05-19T05:31:53.918Z,1004.45
2019-05-19T05:32:53.936Z,1004.51
2019-05-19T05:33:53.945Z,1004.54
2019-05-19T05:34:53.915Z,1004.48
2019-05-19T05:35:54.023Z,1004.52
2019-05-19T05:36:53.904Z,1004.50
2019-05-19T05:37:53.962Z,1004.55
2019-05-19T05:38:54.023Z,1004.51
2019-05-19T05:39:53.904Z,1004.55
2019-05-19T05:40:53.928Z,1004.55
2019-05-19T05:41:53.890Z,1004.47
2019-05-19T05:42:53.946Z,1004.50
2019-05-19T05:43:55.761Z,1004.59
2019-05-19T05:44:53.919Z,1004.49
2019-05-19T05:45:53.932Z,1004.60
2019-05-19T05:46:53.937Z,1004.57
2019-05-19T05:47:53.948Z,1004.49
2019-05-19T05:48:53.932Z,1004.51
2019-05-19T05:49:53.906Z,1004.48
2019-05-19T05:50:53.914Z,1004.57
2019-05-19T05:51:53.950Z,1004.55
2019-05-19T05:52:53.934Z,1004.54
2019-05-19T05:53:53.932Z,1004.57
2019-05-19T05:54:53.933Z,1004.56
2019-05-19T05:55:53.922Z,1004.57
2019-05-19T05:56:53.966Z,1004.59
2019-05-19T05:57:53.965Z,1004.53
2019-05-19T05:58:53.938Z,1004.58
2019-05-19T05:59:54.130Z,1004.57
2019-05-19T06:00:53.925Z,1004.55
2019-05-19T06:01:53.954Z,1004.53
2019-05-19T06:02:53.976Z,1004.55
2019-05-19T06:03:53.936Z,1004.55
2019-05-19T06:04:53.956Z,1004.50
2019-05-19T06:05:53.943Z,1004.56
2019-05-19T06:06:53.951Z,1004.46
2019-05-19T06:07:53.952Z,1004.50
2019-05-19T06:08:53.931Z,1004.54
2019-05-19T06:09:53.940Z,1004.52
2019-05-19T06:10:53.937Z,1004.58
2019-05-19T06:11:53.941Z,1004.53
2019-05-19T06:12:53.968Z,1004.48
2019-05-19T06:13:53.947Z,1004.55
2019-05-19T06:14:53.925Z,1004.54
2019-05-19T06:15:53.948Z,1004.52
2019-05-19T06:16:53.952Z,1004.54
2019-05-19T06:17:53.995Z,1004.56
2019-05-19T06:18:56.711Z,1004.54
2019-05-19T06:19:54.011Z,1004.57
2019-05-19T06:20:53.952Z,1004.55
2019-05-19T06:21:53.936Z,1004.59
2019-05-19T06:22:57.010Z,1004.59
2019-05-19T06:23:53.955Z,1004.61
2019-05-19T06:24:53.963Z,1004.54
2019-05-19T06:25:53.943Z,1004.55
2019-05-19T06:26:53.970Z,1004.56
2019-05-19T06:27:53.994Z,1004.62
2019-05-19T06:28:53.964Z,1004.63
2019-05-19T06:29:53.966Z,1004.59
2019-05-19T06:30:53.955Z,1004.57
2019-05-19T06:31:53.946Z,1004.53
2019-05-19T06:32:53.976Z,1004.59
2019-05-19T06:33:53.955Z,1004.59
2019-05-19T06:34:54.001Z,1004.62
2019-05-19T06:35:53.978Z,1004.58
2019-05-19T06:36:55.192Z,1004.52
2019-05-19T06:37:53.987Z,1004.60
2019-05-19T06:38:53.971Z,1004.54
2019-05-19T06:39:53.972Z,1004.59
2019-05-19T06:40:53.958Z,1004.59
2019-05-19T06:41:53.954Z,1004.55
2019-05-19T06:42:53.995Z,1004.53
2019-05-19T06:43:53.965Z,1004.46
2019-05-19T06:44:53.973Z,1004.58
2019-05-19T06:45:53.985Z,1004.49
2019-05-19T06:46:53.992Z,1004.51
2019-05-19T06:47:53.959Z,1004.51
2019-05-19T06:48:54.352Z,1004.49
2019-05-19T06:49:53.970Z,1004.47
2019-05-19T06:50:54.031Z,1004.49
2019-05-19T06:51:54.018Z,1004.56
2019-05-19T06:52:53.959Z,1004.49
2019-05-19T06:53:54.051Z,1004.54
2019-05-19T06:54:53.997Z,1004.49
2019-05-19T06:55:53.983Z,1004.61
2019-05-19T06:56:54.034Z,1004.65
2019-05-19T06:57:53.993Z,1004.62
2019-05-19T06:58:54.012Z,1004.54
2019-05-19T06:59:53.986Z,1004.60
2019-05-19T07:00:54.020Z,1004.54
2019-05-19T07:01:54.017Z,1004.64
2019-05-19T07:02:54.000Z,1004.60
2019-05-19T07:03:54.009Z,1004.56
2019-05-19T07:04:54.023Z,1004.66
2019-05-19T07:05:54.002Z,1004.59
2019-05-19T07:06:54.055Z,1004.69
2019-05-19T07:07:54.017Z,1004.67
2019-05-19T07:08:54.006Z,1004.65
2019-05-19T07:09:58.423Z,1004.61
2019-05-19T07:10:53.990Z,1004.65
2019-05-19T07:11:54.050Z,1004.64
2019-05-19T07:12:54.047Z,1004.63
2019-05-19T07:13:53.989Z,1004.60
2019-05-19T07:14:54.007Z,1004.62
2019-05-19T07:15:53.998Z,1004.56
2019-05-19T07:16:53.989Z,1004.59
2019-05-19T07:17:54.034Z,1004.56
2019-05-19T07:18:53.998Z,1004.54
2019-05-19T07:19:54.023Z,1004.63
2019-05-19T07:20:54.002Z,1004.52
2019-05-19T07:21:54.002Z,1004.52
2019-05-19T07:22:54.003Z,1004.56
2019-05-19T07:23:54.012Z,1004.58
2019-05-19T07:24:54.015Z,1004.61
2019-05-19T07:25:54.058Z,1004.59
2019-05-19T07:26:54.039Z,1004.59
2019-05-19T07:27:53.994Z,1004.59
2019-05-19T07:28:54.043Z,1004.62
2019-05-19T07:29:54.018Z,1004.58
2019-05-19T07:30:54.009Z,1004.58
2019-05-19T07:31:54.022Z,1004.58
2019-05-19T07:32:54.024Z,1004.53
2019-05-19T07:33:54.044Z,1004.56
2019-05-19T07:34:54.024Z,1004.56
2019-05-19T07:35:54.035Z,1004.64
2019-05-19T07:36:54.014Z,1004.65
2019-05-19T07:37:54.015Z,1004.59
2019-05-19T07:38:53.994Z,1004.51
2019-05-19T07:39:54.393Z,1004.59
2019-05-19T07:40:54.387Z,1004.55
2019-05-19T07:41:54.069Z,1004.55
2019-05-19T07:42:54.132Z,1004.65
2019-05-19T07:43:54.060Z,1004.60
2019-05-19T07:44:54.072Z,1004.64
2019-05-19T07:45:54.041Z,1004.65
2019-05-19T07:46:54.020Z,1004.64
2019-05-19T07:47:54.057Z,1004.58
2019-05-19T07:48:54.058Z,1004.60
2019-05-19T07:49:54.068Z,1004.66
2019-05-19T07:50:54.053Z,1004.65
2019-05-19T07:51:54.034Z,1004.68
2019-05-19T07:52:54.033Z,1004.62
2019-05-19T07:53:54.118Z,1004.69
2019-05-19T07:54:54.108Z,1004.72
2019-05-19T07:55:54.109Z,1004.70
2019-05-19T07:56:54.089Z,1004.74
2019-05-19T07:57:54.662Z,1004.69
2019-05-19T07:58:54.074Z,1004.73
2019-05-19T07:59:54.024Z,1004.66
2019-05-19T08:00:54.074Z,1004.67
2019-05-19T08:01:54.129Z,1004.72
2019-05-19T08:02:54.076Z,1004.70
2019-05-19T08:03:54.045Z,1004.65
2019-05-19T08:04:54.031Z,1004.70
2019-05-19T08:05:56.919Z,1004.65
2019-05-19T08:06:54.093Z,1004.68
2019-05-19T08:07:54.086Z,1004.64
2019-05-19T08:08:54.072Z,1004.66
2019-05-19T08:09:54.098Z,1004.64
2019-05-19T08:10:54.071Z,1004.62
2019-05-19T08:11:54.079Z,1004.65
2019-05-19T08:12:54.066Z,1004.69
2019-05-19T08:13:54.046Z,1004.68
2019-05-19T08:14:54.051Z,1004.71
2019-05-19T08:15:54.073Z,1004.64
2019-05-19T08:16:54.079Z,1004.65
2019-05-19T08:17:54.069Z,1004.70
2019-05-19T08:18:54.059Z,1004.68
2019-05-19T08:19:54.103Z,1004.62
2019-05-19T08:20:54.058Z,1004.65
2019-05-19T08:21:54.098Z,1004.59
2019-05-19T08:22:54.074Z,1004.72
2019-05-19T08:24:00.335Z,1004.61
2019-05-19T08:24:54.150Z,1004.59
2019-05-19T08:25:54.113Z,1004.62
2019-05-19T08:26:54.078Z,1004.61
2019-05-19T08:27:54.054Z,1004.60
2019-05-19T08:28:54.082Z,1004.53
2019-05-19T08:29:54.114Z,1004.61
2019-05-19T08:30:54.074Z,1004.62
2019-05-19T08:31:54.094Z,1004.58
2019-05-19T08:32:54.124Z,1004.63
2019-05-19T08:33:54.088Z,1004.58
2019-05-19T08:34:54.064Z,1004.56
2019-05-19T08:35:54.114Z,1004.65
2019-05-19T08:36:54.083Z,1004.59
2019-05-19T08:37:54.066Z,1004.61
2019-05-19T08:38:54.114Z,1004.62
2019-05-19T08:39:54.101Z,1004.59
2019-05-19T08:40:54.119Z,1004.65
2019-05-19T08:41:54.104Z,1004.66
2019-05-19T08:42:54.086Z,1004.67
2019-05-19T08:43:54.107Z,1004.58
2019-05-19T08:44:54.130Z,1004.59
2019-05-19T08:45:54.114Z,1004.61
2019-05-19T08:46:54.091Z,1004.65
2019-05-19T08:47:54.096Z,1004.58
2019-05-19T08:48:54.089Z,1004.57
2019-05-19T08:49:54.110Z,1004.60
2019-05-19T08:50:54.125Z,1004.58
2019-05-19T08:51:54.087Z,1004.54
2019-05-19T08:52:54.119Z,1004.55
2019-05-19T08:53:54.118Z,1004.54
2019-05-19T08:54:54.133Z,1004.56
2019-05-19T08:55:54.107Z,1004.52
2019-05-19T08:56:54.146Z,1004.54
2019-05-19T08:57:54.122Z,1004.48
2019-05-19T08:58:54.137Z,1004.55
2019-05-19T08:59:54.112Z,1004.58
2019-05-19T09:00:54.093Z,1004.57
2019-05-19T09:01:54.129Z,1004.45
2019-05-19T09:02:54.115Z,1004.49
2019-05-19T09:03:54.117Z,1004.44
2019-05-19T09:04:54.129Z,1004.41
2019-05-19T09:05:54.115Z,1004.45
2019-05-19T09:06:54.117Z,1004.38
2019-05-19T09:07:54.144Z,1004.46
2019-05-19T09:08:54.136Z,1004.37
2019-05-19T09:09:54.158Z,1004.40
2019-05-19T09:10:54.146Z,1004.40
2019-05-19T09:11:54.128Z,1004.43
2019-05-19T09:12:54.176Z,1004.35
2019-05-19T09:13:54.178Z,1004.40
2019-05-19T09:14:54.156Z,1004.40
2019-05-19T09:15:54.121Z,1004.41
2019-05-19T09:16:54.167Z,1004.37
2019-05-19T09:17:54.382Z,1004.34
2019-05-19T09:18:54.150Z,1004.39
2019-05-19T09:19:54.175Z,1004.37
2019-05-19T09:20:54.124Z,1004.30
2019-05-19T09:21:54.139Z,1004.33
2019-05-19T09:22:54.141Z,1004.37
2019-05-19T09:23:54.143Z,1004.32
2019-05-19T09:24:54.171Z,1004.37
2019-05-19T09:25:54.186Z,1004.36
2019-05-19T09:26:54.138Z,1004.35
2019-05-19T09:27:54.161Z,1004.29
2019-05-19T09:28:54.133Z,1004.32
2019-05-19T09:29:54.133Z,1004.36
2019-05-19T09:30:54.150Z,1004.31
2019-05-19T09:31:54.151Z,1004.38
2019-05-19T09:32:54.187Z,1004.36
2019-05-19T09:33:57.253Z,1004.32
2019-05-19T09:35:00.162Z,1004.28
2019-05-19T09:36:30.468Z,1004.24
2019-05-19T09:37:30.522Z,1004.34
2019-05-19T09:38:30.722Z,1004.37
2019-05-19T09:39:30.538Z,1004.31
2019-05-19T09:40:30.810Z,1004.39
2019-05-19T09:41:30.556Z,1004.34
2019-05-19T09:42:30.550Z,1004.31
2019-05-19T09:43:30.549Z,1004.28
2019-05-19T09:44:30.546Z,1004.32
2019-05-19T09:45:30.528Z,1004.24
2019-05-19T09:46:30.546Z,1004.27
2019-05-19T09:47:30.497Z,1004.26
2019-05-19T09:48:30.554Z,1004.25
2019-05-19T09:49:30.507Z,1004.22
2019-05-19T09:50:30.533Z,1004.20
2019-05-19T09:51:30.630Z,1004.25
2019-05-19T09:52:30.550Z,1004.25
2019-05-19T09:53:30.561Z,1004.24
2019-05-19T09:54:42.751Z,1004.17
2019-05-19T09:55:30.530Z,1004.21
2019-05-19T09:56:30.675Z,1004.17
2019-05-19T09:57:30.559Z,1004.21
2019-05-19T09:58:30.544Z,1004.14
2019-05-19T09:59:30.593Z,1004.20
2019-05-19T10:00:30.570Z,1004.16
2019-05-19T10:01:30.607Z,1004.19
2019-05-19T10:02:30.594Z,1004.19
2019-05-19T10:03:30.569Z,1004.19
2019-05-19T10:04:30.594Z,1004.18
2019-05-19T10:05:30.640Z,1004.09
2019-05-19T10:06:30.564Z,1004.14
2019-05-19T10:07:30.556Z,1004.17
2019-05-19T10:08:30.629Z,1004.16
2019-05-19T10:09:30.603Z,1004.16
2019-05-19T10:10:30.591Z,1004.11
2019-05-19T10:11:30.560Z,1004.14
2019-05-19T10:12:30.596Z,1004.15
2019-05-19T10:13:30.629Z,1004.15
2019-05-19T10:14:30.613Z,1004.08
2019-05-19T10:15:30.576Z,1004.10
2019-05-19T10:16:30.589Z,1004.07
2019-05-19T10:17:30.589Z,1004.11
2019-05-19T10:18:30.605Z,1004.08
2019-05-19T10:19:30.570Z,1004.12
2019-05-19T10:20:30.609Z,1004.08
2019-05-19T10:21:30.643Z,1003.99
2019-05-19T10:22:30.591Z,1004.10
2019-05-19T10:23:30.625Z,1004.06
2019-05-19T10:24:30.576Z,1004.08
2019-05-19T10:25:30.632Z,1004.08
2019-05-19T10:26:30.642Z,1004.09
2019-05-19T10:27:30.599Z,1004.06
2019-05-19T10:28:30.623Z,1004.07
2019-05-19T10:29:30.615Z,1004.02
2019-05-19T10:30:30.624Z,1004.03
2019-05-19T10:31:30.586Z,1003.98
2019-05-19T10:32:30.547Z,1003.99
2019-05-19T10:33:30.589Z,1004.04
2019-05-19T10:34:30.636Z,1004.03
2019-05-19T10:35:30.634Z,1003.95
2019-05-19T10:36:30.614Z,1003.98
2019-05-19T10:37:30.644Z,1003.95
2019-05-19T10:38:30.634Z,1003.97
2019-05-19T10:39:30.584Z,1003.98
2019-05-19T10:40:30.669Z,1003.92
2019-05-19T10:41:30.598Z,1003.93
2019-05-19T10:42:30.658Z,1003.91
2019-05-19T10:43:30.620Z,1003.84
2019-05-19T10:44:30.591Z,1003.89
2019-05-19T10:45:30.607Z,1003.89
2019-05-19T10:46:30.607Z,1003.84
2019-05-19T10:47:30.635Z,1003.90
2019-05-19T10:48:30.609Z,1003.87
2019-05-19T10:49:30.625Z,1003.85
2019-05-19T10:50:30.630Z,1003.86
2019-05-19T10:51:30.606Z,1003.93
2019-05-19T10:52:30.611Z,1003.86
2019-05-19T10:53:30.642Z,1003.86
2019-05-19T10:54:30.719Z,1003.84
2019-05-19T10:55:36.536Z,1003.82
2019-05-19T10:56:30.619Z,1003.81
2019-05-19T10:57:30.656Z,1003.86
2019-05-19T10:58:30.645Z,1003.78
2019-05-19T10:59:30.645Z,1003.84
2019-05-19T11:00:30.636Z,1003.79
2019-05-19T11:01:30.602Z,1003.80
2019-05-19T11:02:30.599Z,1003.81
2019-05-19T11:03:30.611Z,1003.80
2019-05-19T11:04:30.625Z,1003.81
2019-05-19T11:05:30.609Z,1003.71
2019-05-19T11:06:30.608Z,1003.75
2019-05-19T11:07:30.606Z,1003.78
2019-05-19T11:08:30.645Z,1003.72
2019-05-19T11:09:30.668Z,1003.76
2019-05-19T11:10:30.646Z,1003.75
2019-05-19T11:11:30.697Z,1003.80
2019-05-19T11:12:30.661Z,1003.82
2019-05-19T11:13:30.648Z,1003.74
2019-05-19T11:14:30.742Z,1003.71
2019-05-19T11:15:30.642Z,1003.69
2019-05-19T11:16:30.610Z,1003.68
2019-05-19T11:17:30.602Z,1003.70
2019-05-19T11:18:30.635Z,1003.70
2019-05-19T11:19:30.684Z,1003.74
2019-05-19T11:20:30.650Z,1003.70
2019-05-19T11:21:30.655Z,1003.75
2019-05-19T11:22:30.613Z,1003.70
2019-05-19T11:23:30.671Z,1003.79
2019-05-19T11:24:30.654Z,1003.70
2019-05-19T11:25:33.858Z,1003.63
2019-05-19T11:26:30.665Z,1003.64
2019-05-19T11:27:30.650Z,1003.69
2019-05-19T11:28:30.672Z,1003.62
2019-05-19T11:29:30.641Z,1003.58
2019-05-19T11:30:30.658Z,1003.64
2019-05-19T11:31:30.670Z,1003.63
2019-05-19T11:32:30.645Z,1003.60
2019-05-19T11:33:30.658Z,1003.66
2019-05-19T11:34:30.683Z,1003.65
2019-05-19T11:35:30.706Z,1003.61
2019-05-19T11:36:30.654Z,1003.71
2019-05-19T11:37:30.641Z,1003.68
2019-05-19T11:38:30.670Z,1003.61
2019-05-19T11:39:30.664Z,1003.61
2019-05-19T11:40:30.672Z,1003.65
2019-05-19T11:41:30.670Z,1003.64
2019-05-19T11:42:30.654Z,1003.63
2019-05-19T11:43:30.725Z,1003.68
2019-05-19T11:44:30.711Z,1003.67
2019-05-19T11:45:30.696Z,1003.60
2019-05-19T11:46:30.653Z,1003.68
2019-05-19T11:47:30.725Z,1003.64
2019-05-19T11:48:30.658Z,1003.65
2019-05-19T11:49:30.672Z,1003.60
2019-05-19T11:50:30.690Z,1003.60
2019-05-19T11:51:30.686Z,1003.59
2019-05-19T11:52:30.663Z,1003.65
2019-05-19T11:53:30.679Z,1003.65
2019-05-19T11:54:30.690Z,1003.70
2019-05-19T11:55:30.694Z,1003.69
2019-05-19T11:56:30.672Z,1003.56
2019-05-19T11:57:30.736Z,1003.59
2019-05-19T11:58:30.656Z,1003.62
2019-05-19T11:59:30.645Z,1003.55
2019-05-19T12:00:30.658Z,1003.59
2019-05-19T12:01:30.706Z,1003.53
2019-05-19T12:02:30.735Z,1003.59
2019-05-19T12:03:30.688Z,1003.61
2019-05-19T12:04:30.722Z,1003.59
2019-05-19T12:05:30.753Z,1003.60
2019-05-19T12:06:39.229Z,1003.52